Time;durP1;ratioP1;P1;durP2;ratioP2;P2;SDS_P1;SDS_P2;PMS_P1;PMS_P2;Temp;Humidity;BMP_temperature;BMP_pressure;BME280_temperature;BME280_humidity;BME280_pressure;Samples;Min_cycle;Max_cycle;Signal;HPM_P1;HPM_P2
2024/01/10 00:00:16;;;;;;;23.47;8.03;;;-15.10;99.90;;;;;;4448514;28;659260;-72
2024/01/10 00:03:05;;;;;;;8.53;4.23;;;-15.20;99.90;;;;;;4426228;28;658266;-71
2024/01/10 00:05:52;;;;;;;16.87;3.90;;;-15.30;99.90;;;;;;4447190;28;657765;-71
2024/01/10 00:08:39;;;;;;;2.78;1.98;;;-15.30;99.90;;;;;;4441247;28;659455;-72
2024/01/10 00:11:27;;;;;;;6.00;4.70;;;-15.30;99.90;;;;;;4446909;28;657758;-73
2024/01/10 00:14:14;;;;;;;3.33;2.90;;;-15.20;99.90;;;;;;4418550;28;658717;-72
2024/01/10 00:17:01;;;;;;;8.47;1.77;;;-15.00;99.90;;;;;;4445520;28;657303;-72
2024/01/10 00:19:50;;;;;;;6.47;4.27;;;-14.80;99.90;;;;;;4419948;28;657451;-72
2024/01/10 00:22:37;;;;;;;9.73;4.27;;;-14.60;99.90;;;;;;4446402;28;657009;-73
2024/01/10 00:25:24;;;;;;;14.07;5.60;;;-14.60;99.90;;;;;;4423680;28;658952;-72
2024/01/10 00:28:11;;;;;;;30.27;8.17;;;-14.90;99.90;;;;;;4445811;28;658506;-72
2024/01/10 00:30:58;;;;;;;9.93;3.00;;;-15.10;99.90;;;;;;4417757;28;658359;-72
2024/01/10 00:33:45;;;;;;;4.90;2.20;;;-15.10;99.90;;;;;;4448614;28;658542;-73
2024/01/10 00:36:34;;;;;;;10.60;9.17;;;-15.10;99.90;;;;;;4421629;28;657629;-72
2024/01/10 00:39:21;;;;;;;58.13;17.67;;;-15.00;99.90;;;;;;4444005;28;658281;-72
2024/01/10 00:42:09;;;;;;;19.03;6.83;;;-14.90;99.90;;;;;;4427325;28;660459;-73
2024/01/10 00:44:56;;;;;;;12.73;3.63;;;-14.70;99.90;;;;;;4444926;28;659029;-73
2024/01/10 00:47:43;;;;;;;15.30;3.53;;;-14.70;99.90;;;;;;4425368;28;659840;-73
2024/01/10 00:50:31;;;;;;;4.97;2.73;;;-14.80;99.90;;;;;;4436652;28;659680;-72
2024/01/10 00:53:19;;;;;;;1.40;1.30;;;-14.70;99.90;;;;;;4428678;28;657689;-72
2024/01/10 00:56:07;;;;;;;5.13;4.10;;;-14.70;99.90;;;;;;4446526;28;657928;-73
2024/01/10 00:58:57;;;;;;;5.95;4.22;;;-14.60;99.90;;;;;;4430064;28;658075;-73
2024/01/10 01:01:44;;;;;;;12.32;5.32;;;-14.50;99.90;;;;;;4429471;28;658236;-72
2024/01/10 01:04:32;;;;;;;36.23;10.50;;;-14.40;99.90;;;;;;4442007;28;659457;-72
2024/01/10 01:07:19;;;;;;;9.73;5.00;;;-14.40;99.90;;;;;;4417695;28;660835;-73
2024/01/10 01:10:09;;;;;;;11.20;4.17;;;-14.40;99.90;;;;;;4444816;28;658062;-72
2024/01/10 01:12:56;;;;;;;25.50;7.20;;;-14.40;99.90;;;;;;4427247;28;659732;-72
2024/01/10 01:15:44;;;;;;;21.67;4.03;;;-14.40;99.90;;;;;;4422448;28;659038;-72
2024/01/10 01:18:31;;;;;;;10.10;5.67;;;-14.30;99.90;;;;;;4440729;28;658818;-72
2024/01/10 01:21:19;;;;;;;15.77;5.17;;;-14.40;99.90;;;;;;4420638;28;658433;-73
2024/01/10 01:24:06;;;;;;;14.63;3.93;;;-14.40;99.90;;;;;;4444917;28;659104;-72
2024/01/10 01:26:55;;;;;;;12.03;6.63;;;-14.60;99.90;;;;;;4422882;28;659986;-73
2024/01/10 01:29:42;;;;;;;9.93;4.37;;;-14.60;99.90;;;;;;4443035;28;659226;-71
2024/01/10 01:32:30;;;;;;;19.57;4.33;;;-14.50;99.90;;;;;;4442177;28;658167;-72
2024/01/10 01:35:21;;;;;;;18.53;8.17;;;-14.40;99.90;;;;;;4437582;28;658735;-72
2024/01/10 01:38:08;;;;;;;11.40;4.23;;;-14.40;99.90;;;;;;4427233;28;658820;-72
2024/01/10 01:40:55;;;;;;;6.60;4.25;;;-14.50;99.90;;;;;;4446442;28;658787;-73
2024/01/10 01:43:44;;;;;;;10.10;4.93;;;-14.50;99.90;;;;;;4422524;28;658513;-72
2024/01/10 01:46:31;;;;;;;17.57;4.30;;;-14.50;99.90;;;;;;4436075;28;658953;-73
2024/01/10 01:49:18;;;;;;;19.25;5.53;;;-14.60;99.90;;;;;;4423501;28;658966;-72
2024/01/10 01:52:06;;;;;;;7.00;3.77;;;-14.70;99.90;;;;;;4440531;28;658899;-73
2024/01/10 01:54:54;;;;;;;10.33;5.13;;;-14.80;99.90;;;;;;4417829;28;658666;-72
2024/01/10 01:57:41;;;;;;;6.33;3.10;;;-14.70;99.90;;;;;;4430445;28;658927;-72
2024/01/10 02:00:30;;;;;;;14.63;6.27;;;-14.70;99.90;;;;;;4417222;28;657337;-72
2024/01/10 02:03:17;;;;;;;11.70;3.10;;;-14.70;99.90;;;;;;4436285;28;658834;-72
2024/01/10 02:06:05;;;;;;;20.57;5.47;;;-14.70;99.90;;;;;;4449070;28;659052;-73
2024/01/10 02:08:53;;;;;;;9.18;3.28;;;-14.70;99.90;;;;;;4414354;28;659071;-72
2024/01/10 02:11:40;;;;;;;8.63;4.20;;;-14.80;99.90;;;;;;4438640;28;658870;-72
2024/01/10 02:14:27;;;;;;;18.80;6.72;;;-14.80;99.90;;;;;;4424301;28;657513;-72
2024/01/10 02:17:17;;;;;;;16.13;6.70;;;-14.90;99.90;;;;;;4447513;28;659328;-73
2024/01/10 02:20:11;;;;;;;12.47;5.20;;;-14.90;99.90;;;;;;4418299;28;659796;-73
2024/01/10 02:22:59;;;;;;;20.03;8.80;;;-15.00;99.90;;;;;;4416803;28;658999;-73
2024/01/10 02:25:47;;;;;;;14.57;4.30;;;-15.00;99.90;;;;;;4430023;28;659182;-72
2024/01/10 02:28:34;;;;;;;28.55;22.00;;;-15.20;99.90;;;;;;4421802;28;658877;-72
2024/01/10 02:31:22;;;;;;;8.93;5.33;;;-15.10;99.90;;;;;;4442187;28;659641;-72
2024/01/10 02:34:09;;;;;;;17.67;5.37;;;-15.10;99.90;;;;;;4424856;28;658573;-73
2024/01/10 02:36:57;;;;;;;3.03;1.60;;;-15.20;99.90;;;;;;4444134;28;658722;-72
2024/01/10 02:39:44;;;;;;;16.77;2.67;;;-15.20;99.90;;;;;;4426392;28;657754;-73
2024/01/10 02:42:33;;;;;;;9.67;2.37;;;-15.20;99.90;;;;;;4441102;28;658490;-72
2024/01/10 02:45:20;;;;;;;15.23;4.70;;;-15.20;99.90;;;;;;4417959;28;658495;-72
2024/01/10 02:48:08;;;;;;;14.47;6.90;;;-15.20;99.90;;;;;;4432485;28;658350;-72
2024/01/10 02:50:55;;;;;;;16.23;3.63;;;-15.20;99.90;;;;;;4435654;28;659961;-72
2024/01/10 02:53:42;;;;;;;7.75;3.05;;;-15.10;99.90;;;;;;4421078;28;658810;-71
2024/01/10 02:56:30;;;;;;;4.73;3.90;;;-15.10;99.90;;;;;;4443247;28;658378;-72
2024/01/10 02:59:18;;;;;;;8.67;3.97;;;-15.30;99.90;;;;;;4443957;28;657591;-72
2024/01/10 03:02:05;;;;;;;5.78;3.80;;;-15.30;99.90;;;;;;4412643;28;657816;-73
2024/01/10 03:04:53;;;;;;;3.00;1.63;;;-15.40;99.90;;;;;;4424164;28;658659;-72
2024/01/10 03:07:40;;;;;;;1.30;1.17;;;-15.40;99.90;;;;;;4442591;28;658937;-73
2024/01/10 03:10:27;;;;;;;4.73;3.60;;;-15.50;99.90;;;;;;4443090;28;658334;-72
2024/01/10 03:13:15;;;;;;;3.75;1.80;;;-15.50;99.90;;;;;;4448471;28;657974;-72
2024/01/10 03:16:03;;;;;;;16.73;10.27;;;-15.40;99.90;;;;;;4434666;28;657692;-72
2024/01/10 03:18:50;;;;;;;2.73;1.63;;;-15.40;99.90;;;;;;4418952;28;660593;-72
2024/01/10 03:21:38;;;;;;;4.83;4.37;;;-15.40;99.90;;;;;;4412905;28;657708;-73
2024/01/10 03:24:26;;;;;;;2.47;1.80;;;-15.40;99.90;;;;;;4444481;28;657831;-72
2024/01/10 03:27:14;;;;;;;2.00;1.27;;;-15.40;99.90;;;;;;4422482;28;657869;-72
2024/01/10 03:30:01;;;;;;;18.43;4.77;;;-15.40;99.90;;;;;;4443098;28;658115;-73
2024/01/10 03:32:49;;;;;;;11.37;2.20;;;-15.40;99.90;;;;;;4420469;28;659723;-72
2024/01/10 03:35:36;;;;;;;13.40;5.73;;;-15.40;99.90;;;;;;4444995;28;659042;-72
2024/01/10 03:38:24;;;;;;;3.40;1.73;;;-15.40;99.90;;;;;;4419974;28;659678;-72
2024/01/10 03:41:14;;;;;;;10.40;4.30;;;-15.40;99.90;;;;;;4446571;28;657986;-73
2024/01/10 03:44:01;;;;;;;7.87;3.67;;;-15.60;99.90;;;;;;4418463;28;659074;-72
2024/01/10 03:46:48;;;;;;;28.20;8.37;;;-15.70;99.90;;;;;;4426610;28;657624;-73
2024/01/10 03:49:37;;;;;;;4.87;3.13;;;-15.70;99.90;;;;;;4445299;28;659075;-72
2024/01/10 03:52:24;;;;;;;2.93;1.43;;;-15.50;99.90;;;;;;4423718;28;658417;-73
2024/01/10 03:55:12;;;;;;;4.13;2.17;;;-15.40;99.90;;;;;;4441065;28;657860;-73
2024/01/10 03:58:00;;;;;;;7.70;3.40;;;-15.30;99.90;;;;;;4421541;28;659369;-73
2024/01/10 04:00:47;;;;;;;3.57;1.70;;;-15.20;99.90;;;;;;4430194;28;657613;-72
2024/01/10 04:03:35;;;;;;;2.67;1.90;;;-15.10;99.90;;;;;;4450038;28;658045;-73
2024/01/10 04:06:24;;;;;;;2.47;1.40;;;-15.10;99.90;;;;;;4432910;28;657991;-72
2024/01/10 04:09:12;;;;;;;1.33;0.87;;;-15.10;99.90;;;;;;4449464;28;657816;-72
2024/01/10 04:12:00;;;;;;;4.77;3.00;;;-15.10;99.90;;;;;;4430284;28;658309;-72
2024/01/10 04:14:47;;;;;;;2.43;0.87;;;-15.10;99.90;;;;;;4449289;28;658416;-73
2024/01/10 04:17:34;;;;;;;2.67;1.50;;;-15.10;99.90;;;;;;4429657;28;657954;-73
2024/01/10 04:20:21;;;;;;;2.90;1.07;;;-15.10;99.90;;;;;;4452079;28;657333;-73
2024/01/10 04:23:10;;;;;;;4.63;1.17;;;-15.00;99.90;;;;;;4420542;28;657185;-73
2024/01/10 04:25:57;;;;;;;1.37;0.97;;;-15.00;99.90;;;;;;4449032;28;658090;-73
2024/01/10 04:28:44;;;;;;;0.93;0.57;;;-15.00;99.90;;;;;;4430113;28;658406;-73
2024/01/10 04:31:31;;;;;;;13.60;2.13;;;-15.00;99.90;;;;;;4452610;28;657433;-73
2024/01/10 04:34:19;;;;;;;3.20;1.40;;;-15.00;99.90;;;;;;4417157;28;658561;-72
2024/01/10 04:37:06;;;;;;;5.40;3.13;;;-15.00;99.90;;;;;;4452504;28;657628;-73
2024/01/10 04:39:55;;;;;;;9.37;3.30;;;-15.00;99.90;;;;;;4414700;28;657979;-73
2024/01/10 04:42:42;;;;;;;2.33;2.20;;;-15.10;99.90;;;;;;4435306;28;658136;-72
2024/01/10 04:45:30;;;;;;;11.57;5.50;;;-15.10;99.90;;;;;;4441566;28;657472;-73
2024/01/10 04:48:17;;;;;;;8.50;2.17;;;-15.10;99.90;;;;;;4450383;28;658922;-73
2024/01/10 04:51:04;;;;;;;14.57;2.97;;;-15.00;99.90;;;;;;4422757;28;658027;-74
2024/01/10 04:53:51;;;;;;;5.47;2.77;;;-15.00;99.90;;;;;;4434759;28;658213;-73
2024/01/10 04:56:40;;;;;;;9.60;4.93;;;-15.00;99.90;;;;;;4429763;28;658186;-72
2024/01/10 04:59:27;;;;;;;2.17;1.77;;;-15.00;99.90;;;;;;4444471;28;657730;-72
2024/01/10 05:02:15;;;;;;;14.57;2.40;;;-15.00;99.90;;;;;;4452125;28;658771;-73
2024/01/10 05:05:03;;;;;;;3.50;1.33;;;-15.00;99.90;;;;;;4447056;28;659403;-70
2024/01/10 05:07:51;;;;;;;7.63;3.00;;;-15.00;99.90;;;;;;4419584;28;658236;-72
2024/01/10 05:10:38;;;;;;;12.60;4.70;;;-15.00;99.90;;;;;;4416341;28;658473;-73
2024/01/10 05:13:27;;;;;;;4.55;2.88;;;-14.90;99.90;;;;;;4446494;28;659399;-72
2024/01/10 05:16:14;;;;;;;6.83;2.57;;;-15.00;99.90;;;;;;4424883;28;658906;-72
2024/01/10 05:19:02;;;;;;;3.05;1.13;;;-15.00;99.90;;;;;;4444591;28;658265;-72
2024/01/10 05:21:49;;;;;;;0.65;0.40;;;-15.00;99.90;;;;;;4420015;28;658078;-73
2024/01/10 05:24:37;;;;;;;5.27;1.80;;;-15.10;99.90;;;;;;4427838;28;656727;-72
2024/01/10 05:27:24;;;;;;;8.73;1.50;;;-15.10;99.90;;;;;;4422089;28;657575;-73
2024/01/10 05:30:13;;;;;;;7.60;1.83;;;-15.10;99.90;;;;;;4447248;28;658058;-73
2024/01/10 05:33:01;;;;;;;8.43;1.83;;;-15.10;99.90;;;;;;4425144;28;658804;-73
2024/01/10 05:35:48;;;;;;;10.93;3.30;;;-15.10;99.90;;;;;;4428430;28;658073;-72
2024/01/10 05:38:35;;;;;;;3.20;1.13;;;-15.10;99.90;;;;;;4445564;28;658868;-72
2024/01/10 05:41:24;;;;;;;1.40;1.27;;;-15.10;99.90;;;;;;4430772;28;658434;-72
2024/01/10 05:44:12;;;;;;;4.63;1.77;;;-15.10;99.90;;;;;;4446412;28;657594;-73
2024/01/10 05:47:01;;;;;;;11.13;2.37;;;-15.10;99.90;;;;;;4416664;28;658109;-73
2024/01/10 05:49:48;;;;;;;0.37;0.37;;;-15.10;99.90;;;;;;4422981;28;658237;-72
2024/01/10 05:52:35;;;;;;;3.03;1.03;;;-15.20;99.90;;;;;;4447561;28;658690;-72
2024/01/10 05:55:23;;;;;;;1.33;0.90;;;-15.20;99.90;;;;;;4436910;28;657680;-72
2024/01/10 05:58:10;;;;;;;10.73;3.00;;;-15.10;99.90;;;;;;4430370;28;658574;-72
2024/01/10 06:00:57;;;;;;;4.83;2.30;;;-15.10;99.90;;;;;;4406181;28;658493;-72
2024/01/10 06:03:46;;;;;;;4.73;0.93;;;-15.20;99.90;;;;;;4438166;28;658592;-72
2024/01/10 06:06:34;;;;;;;1.50;0.97;;;-15.10;99.90;;;;;;4401983;28;658088;-73
2024/01/10 06:09:21;;;;;;;0.63;0.40;;;-15.20;99.90;;;;;;4446699;28;658647;-72
2024/01/10 06:12:09;;;;;;;0.32;0.32;;;-15.10;99.90;;;;;;4428142;28;658250;-73
2024/01/10 06:14:57;;;;;;;0.23;0.13;;;-15.10;99.90;;;;;;4445676;28;658464;-72
2024/01/10 06:17:44;;;;;;;0.57;0.53;;;-15.00;99.90;;;;;;4422308;28;658541;-72
2024/01/10 06:20:32;;;;;;;6.47;1.30;;;-14.90;99.90;;;;;;4447193;28;657656;-72
2024/01/10 06:23:20;;;;;;;4.80;2.50;;;-14.90;99.90;;;;;;4416263;28;657823;-73
2024/01/10 06:26:07;;;;;;;0.90;0.83;;;-14.90;99.90;;;;;;4444606;28;658114;-72
2024/01/10 06:28:55;;;;;;;2.40;0.73;;;-14.80;99.90;;;;;;4451378;28;658867;-72
2024/01/10 06:31:42;;;;;;;1.07;0.77;;;-14.90;99.90;;;;;;4446443;28;657415;-72
2024/01/10 06:34:29;;;;;;;7.43;1.70;;;-14.80;99.90;;;;;;4414891;28;658198;-73
2024/01/10 06:37:17;;;;;;;0.77;0.77;;;-14.80;99.90;;;;;;4446866;28;657711;-72
2024/01/10 06:40:06;;;;;;;1.87;1.57;;;-14.80;99.90;;;;;;4428238;28;658510;-72
2024/01/10 06:42:53;;;;;;;14.40;3.17;;;-14.80;99.90;;;;;;4427863;28;658233;-72
2024/01/10 06:45:42;;;;;;;3.47;1.70;;;-14.80;99.90;;;;;;4446237;28;659688;-72
2024/01/10 06:48:29;;;;;;;3.80;1.90;;;-14.90;99.90;;;;;;4422778;28;658592;-72
2024/01/10 06:51:16;;;;;;;0.57;0.30;;;-14.70;99.90;;;;;;4444777;28;657644;-72
2024/01/10 06:54:05;;;;;;;2.17;1.80;;;-14.70;99.90;;;;;;4427290;28;657637;-72
2024/01/10 06:56:52;;;;;;;2.40;0.87;;;-14.70;99.90;;;;;;4423112;28;657309;-72
2024/01/10 06:59:40;;;;;;;0.43;0.43;;;-14.50;99.90;;;;;;4442081;28;658794;-72
2024/01/10 07:02:27;;;;;;;6.17;5.53;;;-14.40;99.90;;;;;;4451163;28;656557;-72
2024/01/10 07:05:14;;;;;;;4.30;2.60;;;-14.30;99.90;;;;;;4427866;28;658866;-72
2024/01/10 07:08:02;;;;;;;3.33;0.93;;;-14.30;99.90;;;;;;4443844;28;657178;-73
2024/01/10 07:10:51;;;;;;;9.90;2.10;;;-14.30;99.90;;;;;;4428067;28;657952;-72
2024/01/10 07:13:38;;;;;;;5.63;2.43;;;-14.10;99.90;;;;;;4427812;28;657875;-72
2024/01/10 07:16:25;;;;;;;11.00;3.17;;;-13.90;99.90;;;;;;4449266;28;658084;-72
2024/01/10 07:19:13;;;;;;;6.60;1.23;;;-13.80;99.90;;;;;;4426292;28;659041;-73
2024/01/10 07:22:01;;;;;;;2.57;1.03;;;-13.80;99.90;;;;;;4446309;28;658229;-72
2024/01/10 07:24:48;;;;;;;1.30;0.57;;;-13.70;99.90;;;;;;4417318;28;657771;-73
2024/01/10 07:27:37;;;;;;;1.80;1.63;;;-13.60;99.90;;;;;;4438794;28;658245;-72
2024/01/10 07:30:25;;;;;;;2.30;1.33;;;-13.40;99.90;;;;;;4415530;28;658048;-72
2024/01/10 07:33:12;;;;;;;2.83;2.33;;;-13.30;99.90;;;;;;4437361;28;657681;-72
2024/01/10 07:36:00;;;;;;;12.50;3.90;;;-13.20;99.90;;;;;;4444071;28;658039;-72
2024/01/10 07:38:47;;;;;;;1.30;0.80;;;-13.10;99.90;;;;;;4447221;28;659108;-72
2024/01/10 07:41:35;;;;;;;6.33;1.80;;;-13.00;99.90;;;;;;4446666;28;659493;-72
2024/01/10 07:44:24;;;;;;;11.50;4.00;;;-12.90;99.90;;;;;;4438465;28;657966;-73
2024/01/10 07:47:11;;;;;;;21.90;8.27;;;-12.70;99.90;;;;;;4416466;28;659286;-72
2024/01/10 07:49:58;;;;;;;9.80;4.77;;;-12.50;99.90;;;;;;4427289;28;658758;-72
2024/01/10 07:52:46;;;;;;;24.27;7.30;;;-12.30;99.90;;;;;;4441046;28;657904;-73
2024/01/10 07:55:33;;;;;;;13.03;5.33;;;-12.10;99.90;;;;;;4427731;28;659396;-72
2024/01/10 07:58:20;;;;;;;8.07;2.10;;;-11.90;99.90;;;;;;4440577;28;659786;-72
2024/01/10 08:01:10;;;;;;;13.30;4.90;;;-11.80;99.90;;;;;;4439662;28;658321;-72
2024/01/10 08:03:57;;;;;;;35.50;13.43;;;-11.40;99.90;;;;;;4428956;28;658998;-72
2024/01/10 08:06:45;;;;;;;42.17;14.50;;;-11.10;99.90;;;;;;4438467;28;660890;-73
2024/01/10 08:09:32;;;;;;;50.17;17.13;;;-11.00;99.90;;;;;;4441956;28;659638;-72
2024/01/10 08:12:20;;;;;;;84.07;24.07;;;-10.80;99.90;;;;;;4451070;28;661387;-72
2024/01/10 08:15:08;;;;;;;69.93;23.27;;;-10.60;99.90;;;;;;4446777;28;659855;-72
2024/01/10 08:17:56;;;;;;;9.70;5.97;;;-10.60;99.90;;;;;;4420767;28;660581;-72
2024/01/10 08:20:43;;;;;;;44.58;15.32;;;-10.60;99.90;;;;;;4417375;28;657463;-72
2024/01/10 08:23:31;;;;;;;48.33;16.20;;;-10.40;99.90;;;;;;4440786;28;659786;-72
2024/01/10 08:26:18;;;;;;;41.67;13.97;;;-10.30;99.90;;;;;;4427575;28;659769;-72
2024/01/10 08:29:05;;;;;;;61.50;17.20;;;-10.10;99.90;;;;;;4446407;28;660348;-72
2024/01/10 08:31:52;;;;;;;54.87;16.77;;;-9.90;99.90;;;;;;4421280;28;659812;-72
2024/01/10 08:34:41;;;;;;;46.00;15.73;;;-9.70;99.90;;;;;;4435264;28;659376;-72
2024/01/10 08:37:28;;;;;;;43.67;14.13;;;-9.20;99.90;;;;;;4428880;28;659017;-72
2024/01/10 08:40:17;;;;;;;47.50;17.20;;;-8.30;99.90;;;;;;4438829;28;658491;-72
2024/01/10 08:43:04;;;;;;;48.73;17.40;;;-7.70;99.90;;;;;;4427453;28;658803;-72
2024/01/10 08:45:51;;;;;;;62.97;19.70;;;-7.30;99.90;;;;;;4445152;28;658466;-72
2024/01/10 08:48:38;;;;;;;76.23;22.17;;;-7.10;99.90;;;;;;4426610;28;658929;-72
2024/01/10 08:51:27;;;;;;;73.80;23.57;;;-7.00;99.90;;;;;;4444162;28;659515;-72
2024/01/10 08:54:16;;;;;;;76.63;27.17;;;-6.70;99.90;;;;;;4421835;28;659713;-72
2024/01/10 08:57:04;;;;;;;94.77;26.03;;;-6.20;99.90;;;;;;4411608;28;658698;-72
2024/01/10 08:59:51;;;;;;;84.10;29.23;;;-6.00;99.90;;;;;;4447989;28;658397;-72
2024/01/10 09:02:38;;;;;;;85.27;29.47;;;-6.00;99.90;;;;;;4428638;28;658292;-72
2024/01/10 09:05:26;;;;;;;102.33;31.27;;;-5.90;99.90;;;;;;4443570;28;658926;-72
2024/01/10 09:08:15;;;;;;;96.53;31.93;;;-5.80;99.90;;;;;;4422358;28;659483;-72
2024/01/10 09:11:02;;;;;;;106.87;34.97;;;-4.90;99.90;;;;;;4429991;28;658472;-72
2024/01/10 09:13:50;;;;;;;107.10;33.63;;;-4.10;99.90;;;;;;4437648;28;661053;-72
2024/01/10 09:16:38;;;;;;;108.33;36.87;;;-3.60;99.90;;;;;;4435450;28;659485;-72
2024/01/10 09:19:25;;;;;;;104.33;34.80;;;-2.80;99.90;;;;;;4445863;28;660669;-70
2024/01/10 09:22:13;;;;;;;105.93;35.47;;;-2.70;93.10;;;;;;4424318;28;659745;-72
2024/01/10 09:25:04;;;;;;;100.20;32.38;;;-1.50;76.90;;;;;;4436926;28;660324;-72
2024/01/10 09:27:51;;;;;;;89.27;29.87;;;-1.30;71.60;;;;;;4421966;28;659622;-72
2024/01/10 09:30:38;;;;;;;107.83;36.47;;;-0.80;67.00;;;;;;4427986;28;658554;-71
2024/01/10 09:33:26;;;;;;;127.50;38.40;;;-0.20;63.10;;;;;;4438823;28;659860;-72
2024/01/10 09:36:14;;;;;;;110.10;36.83;;;0.00;59.60;;;;;;4426313;28;659449;-71
2024/01/10 09:39:02;;;;;;;91.33;33.00;;;0.20;60.30;;;;;;4442231;28;658127;-70
2024/01/10 09:41:51;;;;;;;111.63;38.67;;;0.30;58.90;;;;;;4425160;28;658546;-72
2024/01/10 09:44:38;;;;;;;120.80;38.93;;;1.00;56.80;;;;;;4427177;28;659151;-71
2024/01/10 09:47:25;;;;;;;96.87;32.03;;;1.20;55.50;;;;;;4446215;28;659067;-71
2024/01/10 09:50:12;;;;;;;116.93;40.63;;;0.90;54.00;;;;;;4438223;28;657421;-71
2024/01/10 09:53:03;;;;;;;131.23;43.33;;;0.60;58.00;;;;;;4446529;28;659597;-71
2024/01/10 09:55:50;;;;;;;118.20;40.53;;;0.90;57.70;;;;;;4415641;28;659767;-71
2024/01/10 09:58:40;;;;;;;119.63;40.70;;;2.90;53.20;;;;;;4425694;28;658858;-71
2024/01/10 10:01:27;;;;;;;122.57;42.67;;;3.90;47.00;;;;;;4428768;28;659054;-71
2024/01/10 10:04:16;;;;;;;114.13;33.93;;;3.90;45.70;;;;;;4449401;28;659101;-71
2024/01/10 10:07:03;;;;;;;111.17;37.63;;;3.10;44.50;;;;;;4427001;28;658520;-71
2024/01/10 10:09:53;;;;;;;113.70;37.80;;;1.60;48.20;;;;;;4448869;28;659665;-71
2024/01/10 10:12:44;;;;;;;119.10;37.07;;;1.60;51.40;;;;;;4411952;28;659152;-71
2024/01/10 10:15:33;;;;;;;124.87;41.33;;;2.40;50.70;;;;;;4425801;28;658723;-71
2024/01/10 10:18:20;;;;;;;124.43;43.23;;;2.90;48.80;;;;;;4404801;28;659648;-72
2024/01/10 10:21:09;;;;;;;122.93;40.27;;;3.10;49.40;;;;;;4409093;28;658668;-71
2024/01/10 10:24:00;;;;;;;121.30;42.85;;;3.80;47.10;;;;;;4425336;28;658780;-71
2024/01/10 10:26:47;;;;;;;107.37;40.90;;;4.30;45.90;;;;;;4384385;28;658715;-71
2024/01/10 10:29:34;;;;;;;111.93;42.30;;;4.40;45.50;;;;;;4430667;28;659795;-71
2024/01/10 10:32:23;;;;;;;102.70;38.47;;;5.70;43.50;;;;;;4427186;28;657982;-71
2024/01/10 10:35:10;;;;;;;110.40;39.77;;;5.30;41.90;;;;;;4403250;28;659840;-71
2024/01/10 10:37:57;;;;;;;92.80;33.07;;;4.60;43.00;;;;;;4408908;28;659056;-71
2024/01/10 10:40:45;;;;;;;100.73;35.40;;;3.60;43.60;;;;;;4433636;28;658749;-71
2024/01/10 10:43:34;;;;;;;102.40;36.40;;;3.90;44.20;;;;;;4422056;28;659059;-71
2024/01/10 10:46:22;;;;;;;99.20;36.43;;;4.40;43.90;;;;;;4428226;28;658985;-71
2024/01/10 10:49:12;;;;;;;81.97;31.53;;;5.20;43.60;;;;;;4405866;28;657604;-71
2024/01/10 10:52:01;;;;;;;42.07;14.83;;;5.00;42.70;;;;;;4400404;28;658999;-71
2024/01/10 10:54:48;;;;;;;46.00;15.30;;;4.30;41.20;;;;;;4404722;28;658364;-70
2024/01/10 10:57:35;;;;;;;11.70;5.03;;;3.50;43.20;;;;;;4422167;28;658227;-71
2024/01/10 11:00:26;;;;;;;56.00;16.70;;;2.30;43.80;;;;;;4408245;28;656658;-70
2024/01/10 11:03:14;;;;;;;52.77;18.30;;;2.60;46.30;;;;;;4408219;28;657865;-70
2024/01/10 11:06:03;;;;;;;21.60;6.80;;;2.50;46.80;;;;;;4423283;28;658543;-70
2024/01/10 11:08:51;;;;;;;72.57;23.77;;;2.70;46.10;;;;;;4392091;28;657157;-71
2024/01/10 11:12:00;;;;;;;23.42;10.63;;;2.80;45.30;;;;;;4410522;28;658206;-70
2024/01/10 11:14:57;;;;;;;42.27;14.00;;;2.60;44.60;;;;;;4396317;28;658076;-71
2024/01/10 11:18:11;;;;;;;67.83;22.10;;;3.20;44.60;;;;;;4398714;28;658363;-70
2024/01/10 11:21:08;;;;;;;56.47;19.87;;;2.90;45.00;;;;;;4391153;28;658515;-71
2024/01/10 11:23:56;;;;;;;28.23;9.90;;;3.40;43.80;;;;;;4424391;28;657738;-71
2024/01/10 11:26:43;;;;;;;17.70;7.03;;;2.80;42.60;;;;;;4420535;28;656629;-71
2024/01/10 11:29:30;;;;;;;51.15;15.77;;;1.80;45.00;;;;;;4450814;28;656817;-71
2024/01/10 11:32:18;;;;;;;25.73;9.40;;;1.70;45.10;;;;;;4430698;28;658014;-71
2024/01/10 11:35:10;;;;;;;33.20;9.67;;;2.30;45.30;;;;;;4453305;28;657390;-71
2024/01/10 11:38:00;;;;;;;30.27;9.47;;;2.30;42.00;;;;;;4409310;28;657449;-71
2024/01/10 11:40:48;;;;;;;11.95;4.93;;;2.40;41.60;;;;;;4420185;28;656436;-71
2024/01/10 11:43:35;;;;;;;33.73;13.23;;;3.60;39.10;;;;;;4444951;28;657490;-71
2024/01/10 11:46:23;;;;;;;35.63;12.23;;;3.60;37.70;;;;;;4437763;28;658204;-71
2024/01/10 11:49:11;;;;;;;30.07;11.60;;;4.50;37.30;;;;;;4440885;28;657584;-72
2024/01/10 11:52:00;;;;;;;16.43;5.47;;;5.40;37.20;;;;;;4427725;28;657797;-71
2024/01/10 11:54:50;;;;;;;24.17;8.87;;;6.10;33.10;;;;;;4429605;28;657212;-71
2024/01/10 11:57:39;;;;;;;32.07;12.27;;;6.00;30.30;;;;;;4445997;28;656219;-70
2024/01/10 12:00:26;;;;;;;23.33;7.60;;;6.20;31.80;;;;;;4449078;28;657261;-71
2024/01/10 12:03:13;;;;;;;35.47;11.47;;;5.30;32.10;;;;;;4431620;28;656857;-71
2024/01/10 12:06:01;;;;;;;27.37;10.67;;;5.50;32.70;;;;;;4449007;28;658231;-72
2024/01/10 12:08:48;;;;;;;28.30;11.93;;;6.10;33.80;;;;;;4430620;28;657858;-70
2024/01/10 12:11:38;;;;;;;33.07;13.00;;;8.00;32.00;;;;;;4442743;28;658569;-69
2024/01/10 12:14:25;;;;;;;34.07;14.90;;;8.10;30.90;;;;;;4423299;28;658418;-70
2024/01/10 12:17:12;;;;;;;39.23;15.67;;;9.90;27.40;;;;;;4421526;28;658451;-70
2024/01/10 12:20:00;;;;;;;39.80;15.60;;;8.90;30.90;;;;;;4453337;28;658545;-71
2024/01/10 12:22:47;;;;;;;36.13;13.85;;;10.40;28.50;;;;;;4430152;28;657984;-70
2024/01/10 12:25:35;;;;;;;29.43;12.43;;;10.30;25.20;;;;;;4441910;28;659825;-70
2024/01/10 12:28:24;;;;;;;32.27;12.93;;;8.80;26.60;;;;;;4451639;28;657682;-71
2024/01/10 12:31:11;;;;;;;30.60;11.80;;;6.10;27.40;;;;;;4419714;28;657552;-71
2024/01/10 12:34:00;;;;;;;30.47;11.17;;;7.00;28.20;;;;;;4426956;28;658240;-71
2024/01/10 12:36:48;;;;;;;30.50;12.63;;;9.00;29.50;;;;;;4445439;28;657923;-70
2024/01/10 12:39:35;;;;;;;24.30;9.93;;;6.60;27.50;;;;;;4449135;28;658423;-71
2024/01/10 12:42:23;;;;;;;27.43;11.33;;;6.20;28.80;;;;;;4447027;28;657129;-71
2024/01/10 12:45:22;;;;;;;42.03;15.63;;;6.00;30.00;;;;;;4449200;28;658661;-71
2024/01/10 12:48:15;;;;;;;50.40;16.60;;;7.40;29.40;;;;;;4397186;28;658279;-70
2024/01/10 12:51:05;;;;;;;43.43;14.00;;;6.10;30.40;;;;;;4406919;28;657515;-70
2024/01/10 12:53:52;;;;;;;43.28;13.85;;;5.20;32.00;;;;;;4428903;28;657329;-70
2024/01/10 12:56:40;;;;;;;20.73;5.13;;;4.60;33.50;;;;;;4440718;28;658915;-71
2024/01/10 12:59:27;;;;;;;54.70;18.63;;;4.00;34.30;;;;;;4453384;28;656487;-71
2024/01/10 13:02:17;;;;;;;38.70;14.90;;;3.70;35.70;;;;;;4425411;28;658431;-72
2024/01/10 13:05:09;;;;;;;52.35;17.02;;;4.20;37.10;;;;;;4421094;28;658688;-71
2024/01/10 13:07:56;;;;;;;33.87;10.43;;;4.20;37.10;;;;;;4419448;28;657899;-72
2024/01/10 13:10:44;;;;;;;24.63;8.20;;;4.10;34.90;;;;;;4418071;28;658067;-72
2024/01/10 13:13:31;;;;;;;23.27;7.30;;;4.40;35.30;;;;;;4449939;28;657229;-70
2024/01/10 13:16:18;;;;;;;24.93;8.77;;;4.30;35.40;;;;;;4429941;28;656851;-71
2024/01/10 13:19:06;;;;;;;40.50;12.47;;;3.90;33.80;;;;;;4453383;28;657222;-71
2024/01/10 13:21:55;;;;;;;35.17;11.80;;;3.90;35.90;;;;;;4422988;28;657447;-71
2024/01/10 13:24:43;;;;;;;46.43;17.33;;;4.60;35.10;;;;;;4435954;28;658309;-71
2024/01/10 13:27:31;;;;;;;45.37;15.37;;;5.30;35.80;;;;;;4425179;28;657970;-71
2024/01/10 13:30:19;;;;;;;49.73;19.27;;;5.40;31.80;;;;;;4424947;28;657521;-71
2024/01/10 13:33:06;;;;;;;49.53;19.53;;;5.00;33.50;;;;;;4447646;28;657826;-71
2024/01/10 13:35:55;;;;;;;43.10;15.83;;;6.20;35.00;;;;;;4427383;28;657196;-71
2024/01/10 13:38:42;;;;;;;51.83;19.10;;;6.00;32.20;;;;;;4445549;28;657688;-71
2024/01/10 13:41:29;;;;;;;47.03;19.30;;;4.90;37.30;;;;;;4427212;28;657587;-71
2024/01/10 13:44:16;;;;;;;51.73;20.23;;;5.50;39.10;;;;;;4449038;28;657431;-71
2024/01/10 13:47:04;;;;;;;61.40;24.87;;;3.20;39.00;;;;;;4417625;28;657438;-72
2024/01/10 13:49:51;;;;;;;58.60;22.57;;;4.60;37.70;;;;;;4450503;28;657628;-71
2024/01/10 13:52:41;;;;;;;52.07;20.60;;;4.70;40.20;;;;;;4424567;28;658404;-71
2024/01/10 13:55:28;;;;;;;63.00;23.20;;;5.20;38.20;;;;;;4425251;28;657604;-71
2024/01/10 13:58:15;;;;;;;58.63;21.27;;;4.80;35.90;;;;;;4446188;28;658307;-72
2024/01/10 14:01:02;;;;;;;53.50;20.97;;;4.40;40.20;;;;;;4433960;28;657599;-71
2024/01/10 14:03:50;;;;;;;63.43;22.77;;;3.50;41.40;;;;;;4443989;28;659395;-71
2024/01/10 14:06:37;;;;;;;43.83;16.53;;;3.60;43.00;;;;;;4442537;28;658570;-71